Nörvenich Air Base

Airport
ICAO code: 
ETNN
Summary
ICAO Region: 
EUR
Territory: 
Location: 
Nörvenich, North Rhine-Westphalia
Serving: 
Nörvenich
Elevation: 
384 ft
Coordinates: 
Aerial View: 
50° 49' 54.001" N, 6° 39' 29.999" E
Metar
Observation
ETNN 052320Z 23001KT 9999 BKN055 02/02 Q1010 BLU
Station
Noervenich
Date/Time
2021-12-05 23:20:00
Wind direction
230°
Wind speed
01 kts
Lowest cloud amount
broken clouds
Temperature
2°C
Dew point
2°C
Humidity
100%
QNH
1010 hPa
Weather condition
n/a

Nörvenich Air Base (Fliegerhorst Nörvenich) is a German Air Force air base in Germany.

Runways

Designator Length Width Surface Rops
7/25 2439 45 ASP No/No
Airport map: 
Aerial View: 

SKYbrary Partners:

Safety knowledge contributed by: